Time;durP1;ratioP1;P1;durP2;ratioP2;P2;SDS_P1;SDS_P2;PMS_P1;PMS_P2;Temp;Humidity;BMP_temperature;BMP_pressure;BME280_temperature;BME280_humidity;BME280_pressure;Samples;Min_cycle;Max_cycle;Signal;HPM_P1;HPM_P2
2022/12/09 00:03:47;;;;;;;16.05;8.63;;;;;;;3.20;100.00;99713.25;8288011;28;20037;-50
2022/12/09 00:07:48;;;;;;;25.30;10.38;;;;;;;3.17;100.00;99701.97;8294095;28;20583;-51
2022/12/09 00:11:51;;;;;;;22.88;11.65;;;;;;;3.16;100.00;99700.25;8293187;28;20085;-50
2022/12/09 00:15:52;;;;;;;24.67;12.23;;;;;;;3.21;100.00;99695.41;8291911;28;20050;-50
2022/12/09 00:19:52;;;;;;;21.10;9.90;;;;;;;3.20;100.00;99694.56;8293315;28;20100;-50
2022/12/09 00:23:54;;;;;;;20.50;10.75;;;;;;;3.19;100.00;99690.19;8294211;28;20046;-52
2022/12/09 00:27:55;;;;;;;21.00;11.38;;;;;;;3.22;100.00;99689.97;8293116;28;20503;-51
2022/12/09 00:31:56;;;;;;;24.23;10.73;;;;;;;3.18;100.00;99682.28;8292902;28;20503;-49
2022/12/09 00:36:06;;;;;;;22.00;12.15;;;;;;;3.13;100.00;99689.78;8292002;28;20407;-52
2022/12/09 00:40:07;;;;;;;24.95;11.70;;;;;;;3.10;100.00;99682.00;8293512;28;20433;-53
2022/12/09 00:44:09;;;;;;;26.10;12.63;;;;;;;3.10;100.00;99680.19;8293691;28;20365;-53
2022/12/09 00:48:09;;;;;;;20.95;12.05;;;;;;;3.08;100.00;99692.78;8292053;28;20384;-52
2022/12/09 00:52:10;;;;;;;20.23;12.30;;;;;;;3.02;100.00;99689.75;8293056;28;20046;-50
2022/12/09 00:56:11;;;;;;;28.80;13.60;;;;;;;2.95;100.00;99686.66;8292732;28;20137;-54
2022/12/09 01:00:11;;;;;;;26.80;12.70;;;;;;;2.90;100.00;99688.81;8291418;28;20050;-50
2022/12/09 01:04:12;;;;;;;21.42;12.45;;;;;;;2.87;100.00;99689.03;8293595;28;20496;-54
2022/12/09 01:08:13;;;;;;;25.55;12.52;;;;;;;2.90;100.00;99683.47;8291028;28;20081;-50
2022/12/09 01:12:14;;;;;;;18.98;10.32;;;;;;;2.81;100.00;99686.81;8291711;28;20084;-50
2022/12/09 01:16:17;;;;;;;23.95;10.50;;;;;;;2.76;100.00;99691.66;8291967;28;20038;-49
2022/12/09 01:20:18;;;;;;;19.63;10.93;;;;;;;2.71;100.00;99696.47;8291495;28;20034;-51
2022/12/09 01:24:19;;;;;;;25.20;12.13;;;;;;;2.76;100.00;99702.34;8292442;28;20049;-50
2022/12/09 01:28:22;;;;;;;29.33;14.55;;;;;;;2.79;100.00;99690.56;8291336;28;20507;-50
2022/12/09 01:32:23;;;;;;;33.03;15.82;;;;;;;2.86;100.00;99699.81;8289751;28;20458;-49
2022/12/09 01:36:27;;;;;;;33.80;16.83;;;;;;;2.95;100.00;99700.00;8290466;28;20530;-50
2022/12/09 01:40:27;;;;;;;33.42;17.88;;;;;;;2.98;100.00;99702.47;8292155;28;20466;-51
2022/12/09 01:44:31;;;;;;;22.23;11.60;;;;;;;2.93;100.00;99704.59;8292082;28;20042;-51
2022/12/09 01:48:36;;;;;;;22.20;11.60;;;;;;;2.86;100.00;99692.69;8291044;28;20033;-50
2022/12/09 01:52:36;;;;;;;26.48;12.13;;;;;;;2.80;100.00;99701.13;8291214;28;20053;-49
2022/12/09 01:56:39;;;;;;;25.17;13.30;;;;;;;2.83;100.00;99703.59;8290817;28;20161;-52
2022/12/09 02:00:43;;;;;;;31.15;14.88;;;;;;;2.90;100.00;99694.16;8291406;28;20085;-50
2022/12/09 02:04:46;;;;;;;26.38;13.10;;;;;;;2.87;100.00;99694.38;8291373;28;20038;-51
2022/12/09 02:08:49;;;;;;;30.83;13.95;;;;;;;2.79;100.00;99691.44;8289929;28;20046;-50
2022/12/09 02:13:22;;;;;;;23.30;12.17;;;;;;;2.76;100.00;99682.78;8290919;28;20037;-50
2022/12/09 02:17:36;;;;;;;22.02;12.05;;;;;;;2.71;100.00;99674.28;8290469;28;20050;-50
2022/12/09 02:21:49;;;;;;;25.73;11.95;;;;;;;2.69;100.00;99678.88;8289369;28;20069;-54
2022/12/09 02:25:59;;;;;;;23.65;13.48;;;;;;;2.52;100.00;99674.75;8290317;28;20041;-50
2022/12/09 02:30:20;;;;;;;36.65;17.38;;;;;;;2.55;100.00;99671.00;8288296;28;20076;-50
2022/12/09 02:34:29;;;;;;;27.02;14.38;;;;;;;2.55;100.00;99669.22;8286702;28;20437;-50
2022/12/09 02:38:37;;;;;;;28.65;13.13;;;;;;;2.59;100.00;99668.00;8289348;28;20590;-50
2022/12/09 02:42:41;;;;;;;22.48;12.77;;;;;;;2.67;100.00;99670.13;8290181;28;20052;-50
2022/12/09 02:46:44;;;;;;;26.13;12.85;;;;;;;2.71;100.00;99660.97;8289842;28;20038;-52
2022/12/09 02:50:48;;;;;;;31.08;14.68;;;;;;;2.74;100.00;99655.41;8288477;28;20034;-52
2022/12/09 02:54:50;;;;;;;29.50;16.13;;;;;;;2.72;100.00;99658.19;8287819;28;20529;-50
2022/12/09 02:58:51;;;;;;;34.90;16.25;;;;;;;2.76;100.00;99656.97;8287309;28;20307;-51
2022/12/09 03:03:01;;;;;;;24.33;13.65;;;;;;;2.71;100.00;99656.44;8286940;28;20069;-51
2022/12/09 03:07:31;;;;;;;21.52;12.00;;;;;;;2.39;100.00;99651.75;8288855;28;20057;-50
2022/12/09 03:11:32;;;;;;;24.15;12.68;;;;;;;2.42;100.00;99656.88;8293881;28;20030;-50
2022/12/09 03:15:34;;;;;;;26.88;12.80;;;;;;;2.56;100.00;99656.72;8289729;28;20637;-50
2022/12/09 03:19:54;;;;;;;25.58;13.82;;;;;;;2.63;100.00;99650.84;8289176;28;20165;-51
2022/12/09 03:23:57;;;;;;;24.80;13.20;;;;;;;2.70;100.00;99648.56;8289382;28;20041;-49
2022/12/09 03:28:03;;;;;;;29.25;13.60;;;;;;;2.68;100.00;99646.00;8288671;28;20058;-50
2022/12/09 03:32:04;;;;;;;27.30;12.98;;;;;;;2.69;100.00;99642.38;8288942;28;20462;-54
2022/12/09 03:36:08;;;;;;;20.60;11.48;;;;;;;2.68;100.00;99640.66;8289571;28;20092;-49
2022/12/09 03:40:13;;;;;;;27.83;13.27;;;;;;;2.64;100.00;99639.19;8289459;28;20117;-50
2022/12/09 03:44:21;;;;;;;26.08;12.98;;;;;;;2.63;100.00;99637.50;8289612;28;20507;-52
2022/12/09 03:48:22;;;;;;;21.35;13.00;;;;;;;2.54;100.00;99630.16;8286823;28;20068;-50
2022/12/09 03:52:38;;;;;;;25.33;11.90;;;;;;;2.54;100.00;99634.66;8287107;28;20125;-52
2022/12/09 03:56:44;;;;;;;21.50;12.05;;;;;;;2.54;100.00;99635.50;8281618;28;20550;-50
2022/12/09 04:00:46;;;;;;;26.65;12.52;;;;;;;2.51;100.00;99633.06;8291240;28;20112;-53
2022/12/09 04:04:47;;;;;;;26.27;11.85;;;;;;;2.39;100.00;99639.28;8295345;28;20064;-50
2022/12/09 04:08:47;;;;;;;23.67;12.02;;;;;;;2.42;100.00;99617.72;8294442;28;20038;-50
2022/12/09 04:12:48;;;;;;;19.67;10.52;;;;;;;2.40;100.00;99614.31;8294726;28;20116;-51
2022/12/09 04:16:49;;;;;;;27.35;12.60;;;;;;;2.35;100.00;99624.44;8293109;28;20034;-52
2022/12/09 04:20:49;;;;;;;20.73;11.82;;;;;;;2.31;100.00;99622.97;8308658;28;20042;-51
2022/12/09 04:24:50;;;;;;;26.25;13.07;;;;;;;2.25;100.00;99615.41;8294528;28;20048;-50
2022/12/09 04:28:51;;;;;;;28.35;12.48;;;;;;;2.19;100.00;99615.84;8293014;28;20044;-51
2022/12/09 04:32:51;;;;;;;28.75;12.25;;;;;;;2.13;100.00;99616.31;8294365;28;20495;-51
2022/12/09 04:36:52;;;;;;;26.95;13.25;;;;;;;1.96;100.00;99608.66;8292191;28;20504;-50
2022/12/09 04:40:52;;;;;;;22.30;12.27;;;;;;;1.69;100.00;99610.63;8292962;28;20044;-52
2022/12/09 04:44:52;;;;;;;24.55;11.35;;;;;;;1.38;100.00;99616.38;8292683;28;20099;-51
2022/12/09 04:48:53;;;;;;;23.77;12.75;;;;;;;1.37;100.00;99604.03;8293412;28;20092;-52
2022/12/09 04:52:53;;;;;;;21.65;12.18;;;;;;;1.30;100.00;99598.25;8292746;28;20062;-51
2022/12/09 04:56:54;;;;;;;31.38;14.02;;;;;;;1.46;100.00;99598.03;8307306;28;20041;-51
2022/12/09 05:00:55;;;;;;;29.83;14.52;;;;;;;1.53;100.00;99599.34;8288042;28;20096;-51
2022/12/09 05:04:55;;;;;;;24.80;13.15;;;;;;;1.52;100.00;99611.78;8292803;28;20121;-51
2022/12/09 05:08:56;;;;;;;27.90;13.98;;;;;;;1.36;100.00;99612.94;8275429;28;20033;-50
2022/12/09 05:12:56;;;;;;;23.00;11.68;;;;;;;0.86;100.00;99607.53;8287311;28;20042;-51
2022/12/09 05:16:57;;;;;;;26.42;12.98;;;;;;;0.80;100.00;99602.63;8290628;28;20057;-51
2022/12/09 05:20:58;;;;;;;29.77;14.18;;;;;;;0.87;100.00;99606.56;8284589;28;20030;-51
2022/12/09 05:24:58;;;;;;;28.38;13.70;;;;;;;0.89;100.00;99602.88;8273497;28;20073;-53
2022/12/09 05:28:59;;;;;;;28.30;13.48;;;;;;;0.98;100.00;99606.72;8282981;28;20112;-51
2022/12/09 05:32:59;;;;;;;32.58;14.80;;;;;;;0.89;100.00;99602.03;8281660;28;20439;-50
2022/12/09 05:37:00;;;;;;;34.08;15.35;;;;;;;0.83;100.00;99602.44;8288263;28;20061;-51
2022/12/09 05:41:00;;;;;;;31.88;14.35;;;;;;;0.64;100.00;99599.28;8303030;28;20128;-51
2022/12/09 05:45:01;;;;;;;31.50;15.48;;;;;;;0.43;100.00;99595.38;8300973;28;20112;-51
2022/12/09 05:49:01;;;;;;;32.72;15.18;;;;;;;0.79;100.00;99600.94;8288695;28;20045;-51
2022/12/09 05:53:02;;;;;;;32.60;14.85;;;;;;;0.67;100.00;99585.78;8288032;28;20262;-55
2022/12/09 05:57:03;;;;;;;33.95;15.20;;;;;;;0.62;100.00;99590.56;8292912;28;20042;-51
2022/12/09 06:01:05;;;;;;;31.27;14.73;;;;;;;0.52;100.00;99582.31;8266777;28;20349;-55
2022/12/09 06:05:06;;;;;;;37.83;16.05;;;;;;;0.22;100.00;99583.47;8255459;28;20042;-51
2022/12/09 06:09:10;;;;;;;34.72;16.27;;;;;;;0.55;100.00;99571.47;8265368;28;20065;-50
2022/12/09 06:13:10;;;;;;;30.77;13.70;;;;;;;0.37;100.00;99574.50;8272459;28;20120;-51
2022/12/09 06:17:11;;;;;;;32.95;14.90;;;;;;;0.50;100.00;99567.44;8271771;28;20100;-54
2022/12/09 06:21:13;;;;;;;29.10;14.63;;;;;;;0.16;100.00;99567.94;8289382;28;20062;-51
2022/12/09 06:25:13;;;;;;;29.23;14.52;;;;;;;-0.06;100.00;99568.47;8288367;28;20040;-52
2022/12/09 06:29:14;;;;;;;31.38;14.32;;;;;;;-0.08;100.00;99581.84;8286613;28;20034;-51
2022/12/09 06:33:14;;;;;;;33.15;15.50;;;;;;;0.20;100.00;99575.59;8285443;28;20041;-50
2022/12/09 06:37:15;;;;;;;42.05;18.05;;;;;;;0.65;100.00;99577.06;8289464;28;20469;-55
2022/12/09 06:41:16;;;;;;;57.25;23.20;;;;;;;0.09;100.00;99586.06;8275083;28;20096;-51
2022/12/09 06:45:18;;;;;;;45.67;20.95;;;;;;;0.13;100.00;99584.06;8286142;28;20069;-55
2022/12/09 06:49:18;;;;;;;52.58;23.67;;;;;;;0.02;100.00;99584.75;8285210;28;20041;-53
2022/12/09 06:53:19;;;;;;;57.53;24.25;;;;;;;-0.02;100.00;99592.09;8287737;28;20041;-54
2022/12/09 06:57:19;;;;;;;43.55;18.38;;;;;;;-0.03;100.00;99584.22;8278932;28;20049;-51
2022/12/09 07:01:22;;;;;;;40.33;18.55;;;;;;;0.14;100.00;99585.75;8271678;28;20038;-54
2022/12/09 07:05:24;;;;;;;39.78;19.13;;;;;;;-0.01;100.00;99584.94;8288692;28;20037;-52
2022/12/09 07:09:24;;;;;;;33.13;16.65;;;;;;;-0.33;100.00;99589.63;8284606;28;20069;-52
2022/12/09 07:13:25;;;;;;;38.60;17.85;;;;;;;-0.05;100.00;99592.28;8288098;28;20042;-52
2022/12/09 07:17:25;;;;;;;37.47;16.48;;;;;;;-0.03;100.00;99586.88;8285519;28;20041;-52
2022/12/09 07:21:27;;;;;;;32.72;16.48;;;;;;;0.17;100.00;99591.75;8287994;28;20038;-51
2022/12/09 07:25:27;;;;;;;36.72;17.33;;;;;;;0.14;100.00;99599.06;8285444;28;20124;-54
2022/12/09 07:29:31;;;;;;;33.78;16.17;;;;;;;-0.11;100.00;99605.09;8286294;28;20038;-53
2022/12/09 07:33:31;;;;;;;30.67;15.90;;;;;;;-0.18;100.00;99601.94;8285402;28;20030;-51
2022/12/09 07:37:32;;;;;;;34.30;15.45;;;;;;;-0.07;100.00;99607.44;8292792;28;20041;-54
2022/12/09 07:41:33;;;;;;;35.70;17.85;;;;;;;0.05;100.00;99613.78;8283195;28;20084;-51
2022/12/09 07:45:34;;;;;;;34.10;16.90;;;;;;;0.10;100.00;99616.16;8261458;28;20420;-54
2022/12/09 07:49:35;;;;;;;39.38;17.17;;;;;;;0.16;100.00;99613.09;8265652;28;20057;-51
2022/12/09 07:53:36;;;;;;;37.15;17.85;;;;;;;0.09;100.00;99612.63;8293808;28;20042;-55
2022/12/09 07:57:37;;;;;;;45.17;18.35;;;;;;;0.21;100.00;99616.31;8291159;28;20038;-55
2022/12/09 08:01:38;;;;;;;39.55;17.77;;;;;;;0.13;100.00;99615.94;8290396;28;20366;-51
2022/12/09 08:05:46;;;;;;;38.05;17.70;;;;;;;-0.05;100.00;99617.97;8293309;28;20068;-56
2022/12/09 08:09:47;;;;;;;38.08;18.63;;;;;;;0.17;100.00;99614.78;8292665;28;20422;-52
2022/12/09 08:13:48;;;;;;;31.60;16.38;;;;;;;0.10;100.00;99613.50;8280990;28;20060;-55
2022/12/09 08:17:48;;;;;;;38.30;17.42;;;;;;;0.03;100.00;99614.84;8279878;28;20108;-52
2022/12/09 08:21:49;;;;;;;41.33;18.30;;;;;;;-0.13;100.00;99615.81;8288911;28;20034;-55
2022/12/09 08:25:52;;;;;;;35.15;16.70;;;;;;;-0.06;100.00;99614.47;8292337;28;20127;-52
2022/12/09 08:29:53;;;;;;;34.38;15.63;;;;;;;-0.10;100.00;99623.56;8292894;28;20045;-54
2022/12/09 08:33:54;;;;;;;41.25;18.17;;;;;;;0.18;100.00;99629.81;8282751;28;20574;-52
2022/12/09 08:37:54;;;;;;;43.05;18.73;;;;;;;0.35;100.00;99627.78;8288284;28;20049;-52
2022/12/09 08:41:55;;;;;;;34.08;16.27;;;;;;;0.28;100.00;99623.81;8290634;28;20030;-53
2022/12/09 08:45:58;;;;;;;33.45;16.90;;;;;;;0.49;100.00;99618.91;8289024;28;20046;-52
2022/12/09 08:49:59;;;;;;;40.53;16.50;;;;;;;0.29;100.00;99616.66;8291506;28;20057;-55
2022/12/09 08:54:00;;;;;;;42.70;19.40;;;;;;;0.28;100.00;99620.28;8291070;28;20038;-51
2022/12/09 08:58:01;;;;;;;43.03;20.58;;;;;;;0.44;100.00;99613.03;8291122;28;20539;-51
2022/12/09 09:02:02;;;;;;;43.35;19.25;;;;;;;0.51;100.00;99606.34;8291737;28;20082;-53
2022/12/09 09:06:04;;;;;;;47.63;21.48;;;;;;;0.46;100.00;99609.34;8290871;28;20057;-51
2022/12/09 09:10:06;;;;;;;44.03;19.95;;;;;;;0.66;100.00;99615.97;8284500;28;20046;-51
2022/12/09 09:14:09;;;;;;;42.90;20.25;;;;;;;0.95;100.00;99628.22;8289638;28;20064;-51
2022/12/09 09:18:10;;;;;;;48.85;21.48;;;;;;;1.17;100.00;99625.81;8275939;28;20066;-52
2022/12/09 09:22:10;;;;;;;38.50;17.13;;;;;;;1.29;100.00;99633.84;8276150;28;20034;-51
2022/12/09 09:26:13;;;;;;;43.15;19.33;;;;;;;1.49;100.00;99632.44;8270449;28;20046;-55
2022/12/09 09:30:14;;;;;;;40.50;19.70;;;;;;;1.73;100.00;99636.06;8283807;28;20069;-51
2022/12/09 09:34:16;;;;;;;48.60;21.60;;;;;;;1.77;100.00;99640.25;8289757;28;20049;-51
2022/12/09 09:38:16;;;;;;;45.20;20.73;;;;;;;1.88;100.00;99635.84;8287875;28;20038;-54
2022/12/09 09:42:25;;;;;;;40.83;19.77;;;;;;;1.96;100.00;99635.31;8271846;28;20070;-53
2022/12/09 09:46:35;;;;;;;45.08;20.50;;;;;;;1.86;100.00;99631.59;8285828;28;20038;-52
2022/12/09 09:51:16;;;;;;;53.42;23.92;;;;;;;1.97;100.00;99632.56;8256918;28;20041;-51
2022/12/09 09:55:22;;;;;;;39.60;16.92;;;;;;;1.80;100.00;99635.53;8256928;28;20057;-55
2022/12/09 09:59:48;;;;;;;37.58;16.42;;;;;;;1.90;100.00;99641.91;8268177;28;20099;-53
2022/12/09 10:08:35;;;;;;;38.25;18.25;;;;;;;1.98;100.00;99628.06;8318382;28;20496;-52
2022/12/09 10:13:08;;;;;;;44.05;20.63;;;;;;;2.07;100.00;99638.06;8315042;28;20079;-53
2022/12/09 10:17:43;;;;;;;44.95;21.52;;;;;;;2.14;100.00;99633.16;8298513;28;20103;-54
2022/12/09 10:21:45;;;;;;;44.72;20.83;;;;;;;2.23;100.00;99622.69;8283648;28;20069;-56
2022/12/09 10:25:51;;;;;;;39.10;18.77;;;;;;;2.43;100.00;99618.56;8282610;28;20367;-56
2022/12/09 10:29:58;;;;;;;35.60;17.52;;;;;;;2.51;100.00;99622.41;8280653;28;20145;-54
2022/12/09 10:33:58;;;;;;;37.65;17.35;;;;;;;2.57;100.00;99616.59;8253727;28;20053;-52
2022/12/09 10:38:16;;;;;;;31.35;16.90;;;;;;;2.64;100.00;99604.50;8287948;28;20041;-56
2022/12/09 10:43:48;;;;;;;39.00;18.67;;;;;;;2.75;100.00;99598.38;8315104;28;20129;-54
2022/12/09 10:46:37;;;;;;;38.20;17.77;;;;;;;2.67;100.00;99585.63;8296156;28;20034;-52
2022/12/09 10:50:39;;;;;;;37.53;17.80;;;;;;;2.76;100.00;99589.41;8282545;28;20050;-55
2022/12/09 10:54:43;;;;;;;38.50;16.90;;;;;;;2.95;100.00;99585.25;8281592;28;20596;-54
2022/12/09 10:58:43;;;;;;;43.17;17.98;;;;;;;3.05;100.00;99580.91;8282358;28;20034;-52
2022/12/09 11:02:53;;;;;;;40.35;18.35;;;;;;;3.10;100.00;99584.09;8281533;28;20042;-55
2022/12/09 11:07:00;;;;;;;36.63;19.30;;;;;;;3.23;100.00;99582.16;8275696;28;20045;-53
2022/12/09 11:11:00;;;;;;;40.70;17.30;;;;;;;3.21;100.00;99581.47;8269256;28;20045;-55
2022/12/09 11:15:05;;;;;;;39.13;17.50;;;;;;;3.29;100.00;99578.16;8270675;28;20038;-54
2022/12/09 11:19:12;;;;;;;40.15;16.77;;;;;;;3.51;100.00;99563.03;8258310;28;20418;-56
2022/12/09 11:23:16;;;;;;;35.08;17.92;;;;;;;3.66;100.00;99566.34;8249342;28;20108;-54
2022/12/09 11:27:25;;;;;;;37.40;18.35;;;;;;;3.62;100.00;99571.06;8249573;28;20116;-55
2022/12/09 11:31:27;;;;;;;40.97;17.35;;;;;;;3.57;100.00;99573.25;8239013;28;20382;-52
2022/12/09 11:39:55;;;;;;;39.63;20.05;;;;;;;3.52;100.00;99564.75;8439032;27;20395;-53
2022/12/09 11:43:56;;;;;;;45.65;19.10;;;;;;;3.56;100.00;99574.22;8428409;28;20044;-54
2022/12/09 11:48:14;;;;;;;38.67;18.35;;;;;;;3.51;100.00;99565.69;8409525;28;20038;-54
2022/12/09 11:56:28;;;;;;;43.33;19.05;;;;;;;3.78;100.00;99555.53;8338985;28;20943;-52
2022/12/09 12:00:40;;;;;;;37.33;19.33;;;;;;;3.87;100.00;99559.28;8314747;28;20057;-53
2022/12/09 12:04:57;;;;;;;44.10;18.88;;;;;;;3.81;100.00;99563.28;8311959;28;20056;-50
2022/12/09 12:09:09;;;;;;;42.78;20.67;;;;;;;3.87;100.00;99560.13;8313892;28;20053;-54
2022/12/09 12:13:33;;;;;;;40.78;19.48;;;;;;;3.86;100.00;99566.47;8316894;28;20121;-50
2022/12/09 12:17:41;;;;;;;49.67;19.35;;;;;;;3.97;100.00;99561.09;8313630;28;20176;-52
2022/12/09 12:22:12;;;;;;;37.13;18.63;;;;;;;4.09;100.00;99549.41;8329323;28;20062;-54
2022/12/09 12:26:52;;;;;;;37.20;18.75;;;;;;;4.03;100.00;99549.09;8315309;28;20038;-53
2022/12/09 12:31:23;;;;;;;37.20;18.80;;;;;;;4.06;100.00;99552.34;8344676;28;20036;-51
2022/12/09 12:35:55;;;;;;;36.28;19.08;;;;;;;4.18;100.00;99547.00;8346186;28;20607;-54
2022/12/09 12:49:27;;;;;;;33.17;18.23;;;;;;;4.57;100.00;99533.03;8351108;27;20570;-51
2022/12/09 12:54:00;;;;;;;40.03;17.35;;;;;;;4.50;100.00;99523.78;8320111;28;20057;-50
2022/12/09 12:58:29;;;;;;;40.60;18.30;;;;;;;4.44;100.00;99532.31;8369550;28;20151;-50
2022/12/09 13:02:39;;;;;;;39.47;18.48;;;;;;;4.52;100.00;99524.53;8344322;28;20041;-52
2022/12/09 13:06:48;;;;;;;39.45;19.02;;;;;;;4.38;100.00;99522.13;8339670;28;20099;-53
2022/12/09 13:10:54;;;;;;;38.40;18.70;;;;;;;4.29;100.00;99520.19;8316306;28;20068;-50
2022/12/09 13:14:54;;;;;;;34.20;17.92;;;;;;;4.22;99.10;99516.34;8308111;28;20442;-54
2022/12/09 13:19:07;;;;;;;38.47;18.27;;;;;;;4.16;99.42;99512.34;8332737;28;20036;-54
2022/12/09 13:23:18;;;;;;;37.67;18.10;;;;;;;4.15;99.64;99513.34;8338204;28;20037;-52
2022/12/09 13:27:30;;;;;;;34.95;19.05;;;;;;;4.16;99.72;99515.03;8336177;28;20058;-50
2022/12/09 13:31:33;;;;;;;40.05;19.20;;;;;;;4.29;100.00;99517.53;8339030;28;20033;-51
2022/12/09 13:35:43;;;;;;;36.38;18.67;;;;;;;4.41;98.12;99516.50;8315124;28;20041;-54
2022/12/09 13:44:17;;;;;;;33.05;16.92;;;;;;;4.58;95.39;99522.19;8413351;27;20396;-50
2022/12/09 13:52:49;;;;;;;38.35;18.40;;;;;;;4.38;96.53;99522.97;8306023;28;20371;-50
2022/12/09 13:57:15;;;;;;;37.53;18.80;;;;;;;4.32;97.16;99533.31;8276078;28;20180;-53
2022/12/09 14:05:52;;;;;;;38.72;19.70;;;;;;;4.08;98.39;99525.47;8389464;27;20432;-54
2022/12/09 14:09:55;;;;;;;46.83;22.75;;;;;;;3.98;99.57;99525.38;8357067;28;20037;-54
2022/12/09 14:14:25;;;;;;;41.72;21.60;;;;;;;3.96;100.00;99526.47;8382735;28;20037;-51
2022/12/09 14:18:30;;;;;;;44.00;21.33;;;;;;;3.89;100.00;99535.97;8356304;28;20052;-50
2022/12/09 14:22:33;;;;;;;47.03;22.10;;;;;;;3.87;100.00;99538.75;8344667;28;20037;-50
2022/12/09 14:26:36;;;;;;;54.47;25.57;;;;;;;3.86;100.00;99541.56;8415428;28;20391;-54
2022/12/09 14:30:58;;;;;;;55.53;26.75;;;;;;;3.84;100.00;99541.66;8369405;28;20041;-50
2022/12/09 14:35:15;;;;;;;50.50;25.75;;;;;;;3.80;100.00;99545.56;8398410;27;20044;-54
2022/12/09 14:39:23;;;;;;;53.88;26.42;;;;;;;3.79;100.00;99541.19;8365935;27;20043;-52
2022/12/09 14:44:03;;;;;;;50.17;25.77;;;;;;;3.64;100.00;99546.91;8348288;28;20060;-50
2022/12/09 14:48:10;;;;;;;51.55;24.42;;;;;;;3.49;100.00;99548.97;8344663;28;20046;-54
2022/12/09 14:52:20;;;;;;;59.03;28.00;;;;;;;3.49;100.00;99548.97;8350722;28;20044;-52
2022/12/09 14:56:23;;;;;;;56.17;26.13;;;;;;;3.37;100.00;99549.91;8402208;28;20059;-50
2022/12/09 15:00:40;;;;;;;59.55;26.15;;;;;;;3.40;100.00;99547.00;8358167;28;20122;-50
2022/12/09 15:04:43;;;;;;;48.00;25.02;;;;;;;3.29;100.00;99552.31;8361670;27;20049;-53
2022/12/09 15:08:45;;;;;;;51.97;25.42;;;;;;;3.14;100.00;99553.50;8351933;28;20407;-50
2022/12/09 15:12:50;;;;;;;61.00;29.20;;;;;;;2.99;100.00;99560.00;8343310;28;20037;-50
2022/12/09 15:16:51;;;;;;;71.03;31.75;;;;;;;2.95;100.00;99569.22;8342618;28;20039;-51
2022/12/09 15:20:55;;;;;;;77.30;32.50;;;;;;;3.04;100.00;99576.53;8324209;28;20121;-49
2022/12/09 15:24:56;;;;;;;63.85;31.13;;;;;;;3.01;100.00;99578.56;8337497;28;20168;-51
2022/12/09 15:28:59;;;;;;;67.47;28.33;;;;;;;3.01;100.00;99573.25;8336675;28;20531;-51
2022/12/09 15:33:00;;;;;;;70.38;29.65;;;;;;;2.84;100.00;99579.03;8322760;28;20037;-53
2022/12/09 15:37:04;;;;;;;84.70;36.78;;;;;;;2.79;100.00;99579.38;8339794;28;20455;-54
2022/12/09 15:42:09;;;;;;;69.07;30.48;;;;;;;2.87;100.00;99576.94;8331994;28;20045;-55
2022/12/09 15:45:32;;;;;;;64.27;28.87;;;;;;;2.71;100.00;99583.59;8326688;28;20048;-50
2022/12/09 15:49:40;;;;;;;66.57;29.88;;;;;;;2.57;100.00;99579.25;8330681;28;20563;-52
2022/12/09 15:53:48;;;;;;;67.43;28.80;;;;;;;2.57;100.00;99579.25;8342802;28;20354;-54
2022/12/09 15:57:54;;;;;;;67.07;29.23;;;;;;;2.57;100.00;99578.41;8333034;28;20131;-51
2022/12/09 16:01:56;;;;;;;68.32;31.67;;;;;;;2.32;100.00;99576.72;8341800;28;20526;-51
2022/12/09 16:06:00;;;;;;;72.85;33.33;;;;;;;2.20;100.00;99574.94;8332062;28;20068;-52
2022/12/09 16:10:16;;;;;;;69.18;30.88;;;;;;;2.43;100.00;99576.75;8365630;28;20046;-54
2022/12/09 16:14:19;;;;;;;81.90;38.60;;;;;;;2.26;100.00;99582.47;8344984;28;20040;-52
2022/12/09 16:18:25;;;;;;;60.33;27.27;;;;;;;2.25;100.00;99577.25;8337761;28;20132;-53
2022/12/09 16:22:29;;;;;;;66.47;31.98;;;;;;;1.98;100.00;99577.41;8326181;28;20081;-54
2022/12/09 16:26:34;;;;;;;71.95;29.83;;;;;;;1.98;100.00;99575.63;8359928;28;20394;-53
2022/12/09 16:30:44;;;;;;;70.22;32.30;;;;;;;2.14;100.00;99579.84;8346980;28;20044;-54
2022/12/09 16:34:47;;;;;;;54.13;26.13;;;;;;;2.08;100.00;99581.16;8353997;28;20731;-51
2022/12/09 16:43:22;;;;;;;63.47;28.45;;;;;;;2.16;100.00;99578.75;8390429;27;20137;-53
2022/12/09 16:47:25;;;;;;;69.60;29.63;;;;;;;1.94;100.00;99574.13;8366881;28;20034;-52
2022/12/09 16:51:25;;;;;;;73.00;29.50;;;;;;;1.94;100.00;99581.28;8351161;28;20068;-51
2022/12/09 16:55:28;;;;;;;95.57;35.72;;;;;;;1.89;100.00;99586.06;8346673;28;20049;-52
2022/12/09 16:59:29;;;;;;;77.88;30.77;;;;;;;1.84;100.00;99581.09;8362981;28;20475;-50
2022/12/09 17:03:40;;;;;;;61.47;28.20;;;;;;;2.18;100.00;99587.50;8358719;28;20478;-51
2022/12/09 17:07:41;;;;;;;67.95;28.38;;;;;;;2.18;100.00;99586.66;8368914;28;20284;-50
2022/12/09 17:11:42;;;;;;;68.97;31.20;;;;;;;2.10;100.00;99589.84;8417221;28;20044;-53
2022/12/09 17:15:42;;;;;;;77.28;31.92;;;;;;;1.86;100.00;99603.13;8385005;28;20057;-52
2022/12/09 17:19:43;;;;;;;68.45;30.20;;;;;;;1.77;100.00;99602.94;8366723;28;20518;-49
2022/12/09 17:23:43;;;;;;;66.07;28.50;;;;;;;1.99;100.00;99595.97;8366386;28;20041;-52
2022/12/09 17:27:44;;;;;;;79.32;31.13;;;;;;;1.75;100.00;99596.88;8366451;28;20033;-50
2022/12/09 17:31:48;;;;;;;73.25;30.63;;;;;;;1.91;100.00;99600.13;8369791;28;20036;-50
2022/12/09 17:35:48;;;;;;;;;;;;;;;2.10;100.00;99605.84;8389863;28;20365;-49
2022/12/09 17:39:49;;;;;;;67.10;30.35;;;;;;;2.23;100.00;99600.50;8366376;28;19924;-49
2022/12/09 17:43:50;;;;;;;67.07;28.17;;;;;;;2.22;100.00;99610.31;8365837;28;20041;-51
2022/12/09 17:47:50;;;;;;;65.00;28.10;;;;;;;2.17;100.00;99607.16;8380780;28;20043;-51
2022/12/09 17:51:51;;;;;;;66.35;28.25;;;;;;;2.19;100.00;99621.19;8343329;28;20750;-50
2022/12/09 17:55:51;;;;;;;62.55;27.90;;;;;;;1.91;100.00;99616.13;8331269;28;20044;-53
2022/12/09 17:59:52;;;;;;;69.68;30.15;;;;;;;1.75;100.00;99628.84;8329287;28;20069;-50
2022/12/09 18:03:57;;;;;;;86.78;38.45;;;;;;;1.83;100.00;99634.50;8331480;28;20449;-50
2022/12/09 18:07:57;;;;;;;75.88;32.70;;;;;;;2.00;100.00;99632.34;8341314;28;20037;-52
2022/12/09 18:11:57;;;;;;;65.10;28.52;;;;;;;1.76;100.00;99639.38;8343509;28;20102;-50
2022/12/09 18:15:58;;;;;;;73.40;30.98;;;;;;;1.78;100.00;99641.94;8342028;28;20033;-50
2022/12/09 18:19:59;;;;;;;72.80;32.35;;;;;;;2.05;100.00;99645.34;8342736;28;20029;-50
2022/12/09 18:24:00;;;;;;;82.97;32.47;;;;;;;2.17;100.00;99652.47;8342641;28;20036;-51
2022/12/09 18:28:00;;;;;;;72.60;31.90;;;;;;;2.04;100.00;99648.94;8345926;28;20080;-50
2022/12/09 18:32:01;;;;;;;68.43;29.95;;;;;;;1.96;100.00;99649.47;8320816;28;20088;-50
2022/12/09 18:36:09;;;;;;;71.78;32.22;;;;;;;1.96;100.00;99649.47;8315103;28;20499;-50
2022/12/09 18:40:10;;;;;;;76.40;33.47;;;;;;;2.06;100.00;99657.69;8332137;28;20048;-51
2022/12/09 18:44:13;;;;;;;76.40;36.92;;;;;;;2.13;100.00;99653.63;8341325;28;20049;-49
2022/12/09 18:48:13;;;;;;;81.78;34.75;;;;;;;2.31;100.00;99659.47;8332245;28;20037;-49
2022/12/09 18:52:14;;;;;;;71.80;32.40;;;;;;;2.39;100.00;99665.09;8324363;28;20116;-49
2022/12/09 18:56:16;;;;;;;63.90;29.25;;;;;;;2.38;100.00;99661.56;8325004;28;20041;-51
2022/12/09 19:00:16;;;;;;;66.45;32.28;;;;;;;2.38;100.00;99658.88;8341015;28;20174;-50
2022/12/09 19:04:21;;;;;;;73.38;32.53;;;;;;;2.52;100.00;99661.44;8361476;28;20036;-50
2022/12/09 19:08:21;;;;;;;63.78;30.70;;;;;;;2.50;100.00;99658.00;8336753;28;20037;-51
2022/12/09 19:12:22;;;;;;;72.97;31.13;;;;;;;2.50;100.00;99663.34;8341709;28;20047;-53
2022/12/09 19:16:24;;;;;;;66.15;29.70;;;;;;;2.61;100.00;99667.91;8341904;28;20055;-53
2022/12/09 19:20:25;;;;;;;65.78;29.80;;;;;;;2.60;100.00;99669.75;8342304;28;20063;-50
2022/12/09 19:24:28;;;;;;;67.78;31.42;;;;;;;2.61;100.00;99671.44;8336062;28;20049;-50
2022/12/09 19:28:29;;;;;;;70.05;30.85;;;;;;;2.64;100.00;99673.88;8326290;28;20402;-51